Adriana — 9A6282 — position and weather

sailwx.info

Track history (hours):
 
Tides and Currents Weather Stations Pressure Air Temp Water Temp Dewpoint Dewpoint Depression Visibility Wind Speed Wind Dir Waves Ship Positions

Adriana

Last reported at 2017-Sep-19 16:40 UTC. Time now 2017-Sep-19 17:05 UTC.
Position N 44°45' E 014°41'.

Length 40 m; beam 10 m.

Type: High speed craft. MMSI: 238112440.

Date/timePositionNaut miles runAvg speedWind from/ knotsBaromVisibWave heightAir tempDewpointWater temp
2017-Sep-19 16:40N 44°45' E 014°41'922.3
2017-Sep-19 16:16N 44°54' E 014°38'1124.0
2017-Sep-19 15:48N 45°02' E 014°27'723.2
2017-Sep-19 15:30N 45°09' E 014°26'10 1.1
2017-Sep-19 06:40N 45°19' E 014°26'423.7
2017-Sep-19 06:30N 45°16' E 014°25'1223.4
2017-Sep-19 05:59N 45°03' E 014°26'1823.9
2017-Sep-19 05:14N 44°48' E 014°38'2 0.2
2017-Sep-18 16:41N 44°46' E 014°40'623.5
2017-Sep-18 16:26N 44°51' E 014°36'1223.7
2017-Sep-18 15:56N 45°01' E 014°27'1023.3
2017-Sep-18 15:30N 45°11' E 014°25'7 0.2
2017-Sep-17 09:42N 45°19' E 014°25'423.8
2017-Sep-17 09:31N 45°14' E 014°25'1223.5
2017-Sep-17 09:00N 45°02' E 014°27'1323.5
2017-Sep-17 08:28N 44°51' E 014°35'6 0.4
2017-Sep-16 16:38N 44°46' E 014°40'421.0
2017-Sep-16 16:27N 44°50' E 014°39'1222.8
2017-Sep-16 15:55N 45°00' E 014°29'922.5
2017-Sep-16 15:30N 45°09' E 014°26'9 1.0
2017-Sep-16 06:37N 45°18' E 014°26'325.2
2017-Sep-16 06:30N 45°15' E 014°26'1224.8
2017-Sep-16 06:00N 45°03' E 014°26'1224.4
2017-Sep-16 05:30N 44°52' E 014°35'6 0.5
2017-Sep-15 16:36N 44°47' E 014°39'222.6
2017-Sep-15 16:30N 44°49' E 014°38'1122.9
2017-Sep-15 16:00N 44°58' E 014°29'1121.8
2017-Sep-15 15:30N 45°09' E 014°26'10 0.3
2017-Sep-14 06:43N 45°19' E 014°26'523.3
2017-Sep-14 06:30N 45°14' E 014°26'1323.3
2017-Sep-14 05:57N 45°01' E 014°27'15 1.1
2017-Sep-13 16:33N 44°48' E 014°38'922.9
2017-Sep-13 16:08N 44°56' E 014°31'522.8
2017-Sep-13 15:54N 45°01' E 014°28'921.6
2017-Sep-13 15:30N 45°09' E 014°27'10 1.1
2017-Sep-13 06:39N 45°19' E 014°26'423.5
2017-Sep-13 06:29N 45°15' E 014°26'1623.8
2017-Sep-13 05:48N 44°59' E 014°29'11 0.8
2017-Sep-12 16:21N 44°50' E 014°37'1224.4
2017-Sep-12 15:51N 45°00' E 014°28'923.8
2017-Sep-12 15:30N 45°08' E 014°26'10 1.1
2017-Sep-12 06:39N 45°19' E 014°26'324.2
2017-Sep-12 06:30N 45°15' E 014°25'1723.6
2017-Sep-12 05:47N 44°58' E 014°29'15 1.1
2017-Sep-11 16:35N 44°46' E 014°40'1324.8
2017-Sep-11 16:05N 44°57' E 014°31'225.5
2017-Sep-11 16:00N 44°58' E 014°29'1324.5
2017-Sep-11 15:29N 45°11' E 014°26'  
Track history (hours):
 
Tides and Currents Weather Stations Pressure Air Temp Water Temp Dewpoint Dewpoint Depression Visibility Wind Speed Wind Dir Waves Ship Positions

Adriana

Last reported at 2017-Sep-19 16:40 UTC. Time now 2017-Sep-19 17:05 UTC.
Position N 44°45' E 014°41'.

Length 40 m; beam 10 m.

Type: High speed craft. MMSI: 238112440.

Date/timePositionNaut miles runAvg speedWind from/ knotsBaromVisibWave heightAir tempDewpointWater temp
2017-Sep-19 16:40N 44°45' E 014°41'922.3
2017-Sep-19 16:16N 44°54' E 014°38'1124.0
2017-Sep-19 15:48N 45°02' E 014°27'723.2
2017-Sep-19 15:30N 45°09' E 014°26'10 1.1
2017-Sep-19 06:40N 45°19' E 014°26'423.7
2017-Sep-19 06:30N 45°16' E 014°25'1223.4
2017-Sep-19 05:59N 45°03' E 014°26'1823.9
2017-Sep-19 05:14N 44°48' E 014°38'2 0.2
2017-Sep-18 16:41N 44°46' E 014°40'623.5
2017-Sep-18 16:26N 44°51' E 014°36'1223.7
2017-Sep-18 15:56N 45°01' E 014°27'1023.3
2017-Sep-18 15:30N 45°11' E 014°25'7 0.2
2017-Sep-17 09:42N 45°19' E 014°25'423.8
2017-Sep-17 09:31N 45°14' E 014°25'1223.5
2017-Sep-17 09:00N 45°02' E 014°27'1323.5
2017-Sep-17 08:28N 44°51' E 014°35'6 0.4
2017-Sep-16 16:38N 44°46' E 014°40'421.0
2017-Sep-16 16:27N 44°50' E 014°39'1222.8
2017-Sep-16 15:55N 45°00' E 014°29'922.5
2017-Sep-16 15:30N 45°09' E 014°26'9 1.0
2017-Sep-16 06:37N 45°18' E 014°26'325.2
2017-Sep-16 06:30N 45°15' E 014°26'1224.8
2017-Sep-16 06:00N 45°03' E 014°26'1224.4
2017-Sep-16 05:30N 44°52' E 014°35'6 0.5
2017-Sep-15 16:36N 44°47' E 014°39'222.6
2017-Sep-15 16:30N 44°49' E 014°38'1122.9
2017-Sep-15 16:00N 44°58' E 014°29'1121.8
2017-Sep-15 15:30N 45°09' E 014°26'10 0.3
2017-Sep-14 06:43N 45°19' E 014°26'523.3
2017-Sep-14 06:30N 45°14' E 014°26'1323.3
2017-Sep-14 05:57N 45°01' E 014°27'15 1.1
2017-Sep-13 16:33N 44°48' E 014°38'922.9
2017-Sep-13 16:08N 44°56' E 014°31'522.8
2017-Sep-13 15:54N 45°01' E 014°28'921.6
2017-Sep-13 15:30N 45°09' E 014°27'10 1.1
2017-Sep-13 06:39N 45°19' E 014°26'423.5
2017-Sep-13 06:29N 45°15' E 014°26'1623.8
2017-Sep-13 05:48N 44°59' E 014°29'11 0.8
2017-Sep-12 16:21N 44°50' E 014°37'1224.4
2017-Sep-12 15:51N 45°00' E 014°28'923.8
2017-Sep-12 15:30N 45°08' E 014°26'10 1.1
2017-Sep-12 06:39N 45°19' E 014°26'324.2
2017-Sep-12 06:30N 45°15' E 014°25'1723.6
2017-Sep-12 05:47N 44°58' E 014°29'15 1.1
2017-Sep-11 16:35N 44°46' E 014°40'1324.8
2017-Sep-11 16:05N 44°57' E 014°31'225.5
2017-Sep-11 16:00N 44°58' E 014°29'1324.5
2017-Sep-11 15:29N 45°11' E 014°26'  

Dump ship's entire track history